sensor_id;sensor_type;location;lat;lon;timestamp;pressure;altitude;pressure_sealevel;temperature;humidity
76496;BME280;65329;52.544;4.662;2024-02-15T00:00:03;117940.31;;;-139.74;51.27
76496;BME280;65329;52.544;4.662;2024-02-15T00:02:30;117940.31;;;-139.74;51.46
76496;BME280;65329;52.544;4.662;2024-02-15T00:04:58;117940.31;;;-139.74;51.19
76496;BME280;65329;52.544;4.662;2024-02-15T00:07:25;117940.31;;;-139.74;51.86
76496;BME280;65329;52.544;4.662;2024-02-15T00:09:53;117940.31;;;-139.74;51.97
76496;BME280;65329;52.544;4.662;2024-02-15T00:12:20;117940.31;;;-139.74;50.99
76496;BME280;65329;52.544;4.662;2024-02-15T00:14:47;117940.31;;;-139.74;51.26
76496;BME280;65329;52.544;4.662;2024-02-15T00:17:14;117940.31;;;-139.74;51.59
76496;BME280;65329;52.544;4.662;2024-02-15T00:19:41;117940.31;;;-139.74;51.33
76496;BME280;65329;52.544;4.662;2024-02-15T00:22:09;117940.31;;;-139.74;50.96
76496;BME280;65329;52.544;4.662;2024-02-15T00:24:37;117940.31;;;-139.74;50.60
76496;BME280;65329;52.544;4.662;2024-02-15T00:27:05;117940.31;;;-139.74;52.29
76496;BME280;65329;52.544;4.662;2024-02-15T00:29:32;117940.31;;;-139.74;52.79
76496;BME280;65329;52.544;4.662;2024-02-15T00:32:01;117940.31;;;-139.74;49.75
76496;BME280;65329;52.544;4.662;2024-02-15T00:34:32;117940.31;;;-139.74;50.48
76496;BME280;65329;52.544;4.662;2024-02-15T00:36:59;117940.31;;;-139.74;50.74
76496;BME280;65329;52.544;4.662;2024-02-15T00:39:26;117940.31;;;-139.74;51.22
76496;BME280;65329;52.544;4.662;2024-02-15T00:41:53;117940.31;;;-139.74;52.47
76496;BME280;65329;52.544;4.662;2024-02-15T00:44:22;117940.31;;;-139.74;51.66
76496;BME280;65329;52.544;4.662;2024-02-15T00:46:49;117940.31;;;-139.74;51.39
76496;BME280;65329;52.544;4.662;2024-02-15T00:49:17;117940.31;;;-139.74;52.64
76496;BME280;65329;52.544;4.662;2024-02-15T00:51:47;117940.31;;;-139.74;52.64
76496;BME280;65329;52.544;4.662;2024-02-15T00:54:15;117940.31;;;-139.74;52.03
76496;BME280;65329;52.544;4.662;2024-02-15T00:56:43;117940.31;;;-139.74;51.67
76496;BME280;65329;52.544;4.662;2024-02-15T00:59:10;117940.31;;;-139.74;51.46
76496;BME280;65329;52.544;4.662;2024-02-15T01:01:36;117940.31;;;-139.74;51.28
76496;BME280;65329;52.544;4.662;2024-02-15T01:04:04;117940.31;;;-139.74;51.79
76496;BME280;65329;52.544;4.662;2024-02-15T01:06:32;117940.31;;;-139.74;50.70
76496;BME280;65329;52.544;4.662;2024-02-15T01:09:00;117940.31;;;-139.74;52.37
76496;BME280;65329;52.544;4.662;2024-02-15T01:11:31;117940.31;;;-139.74;50.11
76496;BME280;65329;52.544;4.662;2024-02-15T01:14:04;117940.31;;;-139.74;49.74
76496;BME280;65329;52.544;4.662;2024-02-15T01:16:31;117940.31;;;-139.74;50.62
76496;BME280;65329;52.544;4.662;2024-02-15T01:18:58;117940.31;;;-139.74;48.83
76496;BME280;65329;52.544;4.662;2024-02-15T01:21:25;117940.31;;;-139.74;49.28
76496;BME280;65329;52.544;4.662;2024-02-15T01:23:52;117940.31;;;-139.74;48.68
76496;BME280;65329;52.544;4.662;2024-02-15T01:26:20;117940.31;;;-139.74;47.84
76496;BME280;65329;52.544;4.662;2024-02-15T01:28:47;117940.31;;;-139.74;48.48
76496;BME280;65329;52.544;4.662;2024-02-15T01:31:15;117940.31;;;-139.74;47.20
76496;BME280;65329;52.544;4.662;2024-02-15T01:33:44;117940.31;;;-139.74;47.11
76496;BME280;65329;52.544;4.662;2024-02-15T01:36:16;117940.31;;;-139.74;46.39
76496;BME280;65329;52.544;4.662;2024-02-15T01:38:44;117940.31;;;-139.74;48.78
76496;BME280;65329;52.544;4.662;2024-02-15T01:41:12;117940.31;;;-139.74;47.13
76496;BME280;65329;52.544;4.662;2024-02-15T01:43:43;117940.31;;;-139.74;49.20
76496;BME280;65329;52.544;4.662;2024-02-15T01:46:10;117940.31;;;-139.74;46.42
76496;BME280;65329;52.544;4.662;2024-02-15T01:48:39;117940.31;;;-139.74;46.33
76496;BME280;65329;52.544;4.662;2024-02-15T01:51:07;117940.31;;;-139.74;44.62
76496;BME280;65329;52.544;4.662;2024-02-15T01:53:35;117940.31;;;-139.74;44.09
76496;BME280;65329;52.544;4.662;2024-02-15T01:56:03;117940.31;;;-139.74;43.18
76496;BME280;65329;52.544;4.662;2024-02-15T01:58:32;117940.31;;;-139.74;43.12
76496;BME280;65329;52.544;4.662;2024-02-15T02:01:00;117940.31;;;-139.74;42.00
76496;BME280;65329;52.544;4.662;2024-02-15T02:03:28;117940.31;;;-139.74;47.53
76496;BME280;65329;52.544;4.662;2024-02-15T02:05:55;117940.31;;;-139.74;37.80
76496;BME280;65329;52.544;4.662;2024-02-15T02:08:22;117940.31;;;-139.74;41.07
76496;BME280;65329;52.544;4.662;2024-02-15T02:10:50;117940.31;;;-139.74;42.62
76496;BME280;65329;52.544;4.662;2024-02-15T02:13:17;117940.31;;;-139.74;43.40
76496;BME280;65329;52.544;4.662;2024-02-15T02:15:44;117940.31;;;-139.74;41.79
76496;BME280;65329;52.544;4.662;2024-02-15T02:18:11;117940.31;;;-139.74;41.36
76496;BME280;65329;52.544;4.662;2024-02-15T02:20:38;117940.31;;;-139.74;41.09
76496;BME280;65329;52.544;4.662;2024-02-15T02:23:15;117940.31;;;-139.74;42.56
76496;BME280;65329;52.544;4.662;2024-02-15T02:25:43;117940.31;;;-139.74;40.40
76496;BME280;65329;52.544;4.662;2024-02-15T02:28:11;117940.31;;;-139.74;41.50
76496;BME280;65329;52.544;4.662;2024-02-15T02:30:39;117940.31;;;-139.74;40.62
76496;BME280;65329;52.544;4.662;2024-02-15T02:33:12;117940.31;;;-139.74;40.33
76496;BME280;65329;52.544;4.662;2024-02-15T02:35:47;117940.31;;;-139.74;40.41
76496;BME280;65329;52.544;4.662;2024-02-15T02:38:15;117940.31;;;-139.74;38.70
76496;BME280;65329;52.544;4.662;2024-02-15T02:40:42;117940.31;;;-139.74;40.69
76496;BME280;65329;52.544;4.662;2024-02-15T02:43:09;117940.31;;;-139.74;32.59
76496;BME280;65329;52.544;4.662;2024-02-15T02:45:36;117940.31;;;-139.74;32.70
76496;BME280;65329;52.544;4.662;2024-02-15T02:48:04;117940.31;;;-139.74;29.61
76496;BME280;65329;52.544;4.662;2024-02-15T02:50:32;117940.31;;;-139.74;28.88
76496;BME280;65329;52.544;4.662;2024-02-15T02:52:59;117940.31;;;-139.74;36.23
76496;BME280;65329;52.544;4.662;2024-02-15T02:55:26;117940.31;;;-139.74;28.43
76496;BME280;65329;52.544;4.662;2024-02-15T02:57:57;117940.31;;;-139.74;30.35
76496;BME280;65329;52.544;4.662;2024-02-15T03:00:24;117940.31;;;-139.74;30.03
76496;BME280;65329;52.544;4.662;2024-02-15T03:02:51;117940.31;;;-139.74;31.70
76496;BME280;65329;52.544;4.662;2024-02-15T03:05:18;117940.31;;;-139.74;29.23
76496;BME280;65329;52.544;4.662;2024-02-15T03:07:48;117940.31;;;-139.74;30.69
76496;BME280;65329;52.544;4.662;2024-02-15T03:10:15;117940.31;;;-139.74;31.64
76496;BME280;65329;52.544;4.662;2024-02-15T03:12:42;117940.31;;;-139.74;33.59
76496;BME280;65329;52.544;4.662;2024-02-15T03:15:16;117940.31;;;-139.74;30.99
76496;BME280;65329;52.544;4.662;2024-02-15T03:17:47;117940.31;;;-139.74;31.02
76496;BME280;65329;52.544;4.662;2024-02-15T03:20:15;117940.31;;;-139.74;32.42
76496;BME280;65329;52.544;4.662;2024-02-15T03:22:57;117940.31;;;-139.74;38.55
76496;BME280;65329;52.544;4.662;2024-02-15T03:25:25;117940.31;;;-139.74;39.63
76496;BME280;65329;52.544;4.662;2024-02-15T03:27:54;117940.31;;;-139.74;39.83
76496;BME280;65329;52.544;4.662;2024-02-15T03:30:24;117940.31;;;-139.74;37.72
76496;BME280;65329;52.544;4.662;2024-02-15T03:32:52;117940.31;;;-139.74;34.16
76496;BME280;65329;52.544;4.662;2024-02-15T03:35:21;117940.31;;;-139.74;24.18
76496;BME280;65329;52.544;4.662;2024-02-15T03:37:50;117940.31;;;-139.74;34.47
76496;BME280;65329;52.544;4.662;2024-02-15T03:40:21;117940.31;;;-139.74;35.74
76496;BME280;65329;52.544;4.662;2024-02-15T03:42:49;117940.31;;;-139.74;38.44
76496;BME280;65329;52.544;4.662;2024-02-15T03:45:20;117940.31;;;-139.74;40.64
76496;BME280;65329;52.544;4.662;2024-02-15T03:47:47;117940.31;;;-139.74;45.53
76496;BME280;65329;52.544;4.662;2024-02-15T03:50:17;117940.31;;;-139.74;49.51
76496;BME280;65329;52.544;4.662;2024-02-15T03:52:45;117940.31;;;-139.74;49.64
76496;BME280;65329;52.544;4.662;2024-02-15T03:55:12;117940.31;;;-139.74;50.58
76496;BME280;65329;52.544;4.662;2024-02-15T03:57:40;117940.31;;;-139.74;48.36
76496;BME280;65329;52.544;4.662;2024-02-15T04:00:14;117940.31;;;-139.74;49.54
76496;BME280;65329;52.544;4.662;2024-02-15T04:02:49;117940.31;;;-139.74;49.79
76496;BME280;65329;52.544;4.662;2024-02-15T04:05:16;117940.31;;;-139.74;50.54
76496;BME280;65329;52.544;4.662;2024-02-15T04:07:46;117940.31;;;-139.74;51.02
76496;BME280;65329;52.544;4.662;2024-02-15T04:10:13;117940.31;;;-139.74;51.56
76496;BME280;65329;52.544;4.662;2024-02-15T04:12:40;117940.31;;;-139.74;51.67
76496;BME280;65329;52.544;4.662;2024-02-15T04:15:09;117940.31;;;-139.74;53.00
76496;BME280;65329;52.544;4.662;2024-02-15T04:17:41;117940.31;;;-139.74;50.79
76496;BME280;65329;52.544;4.662;2024-02-15T04:20:10;117940.31;;;-139.74;49.91
76496;BME280;65329;52.544;4.662;2024-02-15T04:22:39;117940.31;;;-139.74;50.21
76496;BME280;65329;52.544;4.662;2024-02-15T04:25:09;117940.31;;;-139.74;52.05
76496;BME280;65329;52.544;4.662;2024-02-15T04:27:38;117940.31;;;-139.74;52.90
76496;BME280;65329;52.544;4.662;2024-02-15T04:30:06;117940.31;;;-139.74;51.67
76496;BME280;65329;52.544;4.662;2024-02-15T04:32:35;117940.31;;;-139.74;52.94
76496;BME280;65329;52.544;4.662;2024-02-15T04:35:04;117940.31;;;-139.74;50.75
76496;BME280;65329;52.544;4.662;2024-02-15T04:37:35;117940.31;;;-139.74;52.57
76496;BME280;65329;52.544;4.662;2024-02-15T04:40:04;117940.31;;;-139.74;53.24
76496;BME280;65329;52.544;4.662;2024-02-15T04:42:38;117940.31;;;-139.74;54.11
76496;BME280;65329;52.544;4.662;2024-02-15T04:45:10;117940.31;;;-139.74;54.07
76496;BME280;65329;52.544;4.662;2024-02-15T04:47:40;117940.31;;;-139.74;54.44
76496;BME280;65329;52.544;4.662;2024-02-15T04:50:07;117940.31;;;-139.74;54.28
76496;BME280;65329;52.544;4.662;2024-02-15T04:52:36;117940.31;;;-139.74;53.39
76496;BME280;65329;52.544;4.662;2024-02-15T04:55:04;117940.31;;;-139.74;53.52
76496;BME280;65329;52.544;4.662;2024-02-15T04:57:34;117940.31;;;-139.74;53.35
76496;BME280;65329;52.544;4.662;2024-02-15T05:00:04;117940.31;;;-139.74;53.58
76496;BME280;65329;52.544;4.662;2024-02-15T05:02:37;117940.31;;;-139.74;52.75
76496;BME280;65329;52.544;4.662;2024-02-15T05:05:09;117940.31;;;-139.74;53.15
76496;BME280;65329;52.544;4.662;2024-02-15T05:07:36;117940.31;;;-139.74;54.35
76496;BME280;65329;52.544;4.662;2024-02-15T05:10:07;117940.31;;;-139.74;53.27
76496;BME280;65329;52.544;4.662;2024-02-15T05:12:37;117940.31;;;-139.74;53.56
76496;BME280;65329;52.544;4.662;2024-02-15T05:15:04;117940.31;;;-139.74;53.77
76496;BME280;65329;52.544;4.662;2024-02-15T05:17:40;117940.31;;;-139.74;53.84
76496;BME280;65329;52.544;4.662;2024-02-15T05:20:10;117940.31;;;-139.74;53.62
76496;BME280;65329;52.544;4.662;2024-02-15T05:22:41;117940.31;;;-139.74;53.94
76496;BME280;65329;52.544;4.662;2024-02-15T05:25:17;117940.31;;;-139.74;52.46
76496;BME280;65329;52.544;4.662;2024-02-15T05:27:51;117940.31;;;-139.74;52.19
76496;BME280;65329;52.544;4.662;2024-02-15T05:30:22;117940.31;;;-139.74;53.38
76496;BME280;65329;52.544;4.662;2024-02-15T05:32:50;117940.31;;;-139.74;54.02
76496;BME280;65329;52.544;4.662;2024-02-15T05:35:19;117940.31;;;-139.74;52.27
76496;BME280;65329;52.544;4.662;2024-02-15T05:37:46;117940.31;;;-139.74;54.09
76496;BME280;65329;52.544;4.662;2024-02-15T05:40:14;117940.31;;;-139.74;54.16
76496;BME280;65329;52.544;4.662;2024-02-15T05:42:46;117940.31;;;-139.74;53.05
76496;BME280;65329;52.544;4.662;2024-02-15T05:47:52;117940.31;;;-139.74;53.56
76496;BME280;65329;52.544;4.662;2024-02-15T05:50:20;117940.31;;;-139.74;53.32
76496;BME280;65329;52.544;4.662;2024-02-15T05:52:48;117940.31;;;-139.74;53.17
76496;BME280;65329;52.544;4.662;2024-02-15T05:55:15;117940.31;;;-139.74;53.40
76496;BME280;65329;52.544;4.662;2024-02-15T05:57:44;117940.31;;;-139.74;53.29
76496;BME280;65329;52.544;4.662;2024-02-15T06:00:11;117940.31;;;-139.74;53.51
76496;BME280;65329;52.544;4.662;2024-02-15T06:02:48;117940.31;;;-139.74;53.47
76496;BME280;65329;52.544;4.662;2024-02-15T06:05:17;117940.31;;;-139.74;53.57
76496;BME280;65329;52.544;4.662;2024-02-15T06:07:44;117940.31;;;-139.74;53.34
76496;BME280;65329;52.544;4.662;2024-02-15T06:10:14;117940.31;;;-139.74;53.58
76496;BME280;65329;52.544;4.662;2024-02-15T06:12:41;117940.31;;;-139.74;53.57
76496;BME280;65329;52.544;4.662;2024-02-15T06:15:08;117940.31;;;-139.74;53.57
76496;BME280;65329;52.544;4.662;2024-02-15T06:17:43;117940.31;;;-139.74;53.64
76496;BME280;65329;52.544;4.662;2024-02-15T06:20:15;117940.31;;;-139.74;53.51
76496;BME280;65329;52.544;4.662;2024-02-15T06:22:46;117940.31;;;-139.74;53.42
76496;BME280;65329;52.544;4.662;2024-02-15T06:25:13;117940.31;;;-139.74;53.11
76496;BME280;65329;52.544;4.662;2024-02-15T06:27:42;117940.31;;;-139.74;53.70
76496;BME280;65329;52.544;4.662;2024-02-15T06:30:10;117940.31;;;-139.74;53.89
76496;BME280;65329;52.544;4.662;2024-02-15T06:32:57;117940.31;;;-139.74;53.96
76496;BME280;65329;52.544;4.662;2024-02-15T06:35:43;117940.31;;;-139.74;53.79
76496;BME280;65329;52.544;4.662;2024-02-15T06:38:29;117940.31;;;-139.74;53.37
76496;BME280;65329;52.544;4.662;2024-02-15T06:41:14;117940.31;;;-139.74;54.04
76496;BME280;65329;52.544;4.662;2024-02-15T06:43:41;117940.31;;;-139.74;52.87
76496;BME280;65329;52.544;4.662;2024-02-15T06:46:08;117940.31;;;-139.74;53.45
76496;BME280;65329;52.544;4.662;2024-02-15T06:48:37;117940.31;;;-139.74;53.65
76496;BME280;65329;52.544;4.662;2024-02-15T06:51:05;117940.31;;;-139.74;53.53
76496;BME280;65329;52.544;4.662;2024-02-15T06:53:33;117940.31;;;-139.74;52.84
76496;BME280;65329;52.544;4.662;2024-02-15T06:56:00;117940.31;;;-139.74;53.04
76496;BME280;65329;52.544;4.662;2024-02-15T06:58:27;117940.31;;;-139.74;52.82
76496;BME280;65329;52.544;4.662;2024-02-15T07:00:53;117940.31;;;-139.74;52.99
76496;BME280;65329;52.544;4.662;2024-02-15T07:03:21;117940.31;;;-139.74;53.23
76496;BME280;65329;52.544;4.662;2024-02-15T07:05:50;117940.31;;;-139.74;53.43
76496;BME280;65329;52.544;4.662;2024-02-15T07:08:17;117940.31;;;-139.74;53.51
76496;BME280;65329;52.544;4.662;2024-02-15T07:10:44;117940.31;;;-139.74;53.69
76496;BME280;65329;52.544;4.662;2024-02-15T07:13:11;117940.31;;;-139.74;53.75
76496;BME280;65329;52.544;4.662;2024-02-15T07:15:38;117940.31;;;-139.74;53.45
76496;BME280;65329;52.544;4.662;2024-02-15T07:18:06;117940.31;;;-139.74;53.43
76496;BME280;65329;52.544;4.662;2024-02-15T07:20:33;117940.31;;;-139.74;53.35
76496;BME280;65329;52.544;4.662;2024-02-15T07:23:01;117940.31;;;-139.74;53.49
76496;BME280;65329;52.544;4.662;2024-02-15T07:25:28;117940.31;;;-139.74;53.55
76496;BME280;65329;52.544;4.662;2024-02-15T07:27:55;117940.31;;;-139.74;53.43
76496;BME280;65329;52.544;4.662;2024-02-15T07:30:23;117940.31;;;-139.74;53.52
76496;BME280;65329;52.544;4.662;2024-02-15T07:32:52;117940.31;;;-139.74;53.43
76496;BME280;65329;52.544;4.662;2024-02-15T07:35:19;117940.31;;;-139.74;53.25
76496;BME280;65329;52.544;4.662;2024-02-15T07:37:53;117940.31;;;-139.74;53.14
76496;BME280;65329;52.544;4.662;2024-02-15T07:40:22;117940.31;;;-139.74;53.18
76496;BME280;65329;52.544;4.662;2024-02-15T07:42:49;117940.31;;;-139.74;53.06
76496;BME280;65329;52.544;4.662;2024-02-15T07:45:17;117940.31;;;-139.74;53.21
76496;BME280;65329;52.544;4.662;2024-02-15T07:47:44;117940.31;;;-139.74;53.06
76496;BME280;65329;52.544;4.662;2024-02-15T07:50:15;117940.31;;;-139.74;52.85
76496;BME280;65329;52.544;4.662;2024-02-15T07:52:46;117940.31;;;-139.74;52.65
76496;BME280;65329;52.544;4.662;2024-02-15T07:55:14;117940.31;;;-139.74;52.61
76496;BME280;65329;52.544;4.662;2024-02-15T07:57:42;117940.31;;;-139.74;52.84
76496;BME280;65329;52.544;4.662;2024-02-15T08:00:09;117940.31;;;-139.74;52.63
76496;BME280;65329;52.544;4.662;2024-02-15T08:02:38;117940.31;;;-139.74;52.32
76496;BME280;65329;52.544;4.662;2024-02-15T08:05:10;117940.31;;;-139.74;52.75
76496;BME280;65329;52.544;4.662;2024-02-15T08:07:42;117940.31;;;-139.74;52.67
76496;BME280;65329;52.544;4.662;2024-02-15T08:10:11;117940.31;;;-139.74;52.67
76496;BME280;65329;52.544;4.662;2024-02-15T08:12:43;117940.31;;;-139.74;52.73
76496;BME280;65329;52.544;4.662;2024-02-15T08:15:11;117940.31;;;-139.74;52.23
76496;BME280;65329;52.544;4.662;2024-02-15T08:17:42;117940.31;;;-139.74;51.67
76496;BME280;65329;52.544;4.662;2024-02-15T08:20:14;117940.31;;;-139.74;51.72
76496;BME280;65329;52.544;4.662;2024-02-15T08:22:41;117940.31;;;-139.74;52.00
76496;BME280;65329;52.544;4.662;2024-02-15T08:25:11;117940.31;;;-139.74;51.88
76496;BME280;65329;52.544;4.662;2024-02-15T08:27:40;117940.31;;;-139.74;51.65
76496;BME280;65329;52.544;4.662;2024-02-15T08:30:11;117940.31;;;-139.74;51.72
76496;BME280;65329;52.544;4.662;2024-02-15T08:32:39;117940.31;;;-139.74;51.95
76496;BME280;65329;52.544;4.662;2024-02-15T08:35:09;117940.31;;;-139.74;52.03
76496;BME280;65329;52.544;4.662;2024-02-15T08:37:38;117940.31;;;-139.74;52.27
76496;BME280;65329;52.544;4.662;2024-02-15T08:40:07;117940.31;;;-139.74;52.44
76496;BME280;65329;52.544;4.662;2024-02-15T08:42:40;117940.31;;;-139.74;52.03
76496;BME280;65329;52.544;4.662;2024-02-15T08:45:08;117940.31;;;-139.74;52.55
76496;BME280;65329;52.544;4.662;2024-02-15T08:47:38;117940.31;;;-139.74;52.27
76496;BME280;65329;52.544;4.662;2024-02-15T08:50:07;117940.31;;;-139.74;52.15
76496;BME280;65329;52.544;4.662;2024-02-15T08:52:39;117940.31;;;-139.74;52.34
76496;BME280;65329;52.544;4.662;2024-02-15T08:55:10;117940.31;;;-139.74;52.82
76496;BME280;65329;52.544;4.662;2024-02-15T08:57:37;117940.31;;;-139.74;52.48
76496;BME280;65329;52.544;4.662;2024-02-15T09:00:08;117940.31;;;-139.74;52.44
76496;BME280;65329;52.544;4.662;2024-02-15T09:02:44;117940.31;;;-139.74;51.92
76496;BME280;65329;52.544;4.662;2024-02-15T09:05:13;117940.31;;;-139.74;51.88
76496;BME280;65329;52.544;4.662;2024-02-15T09:07:42;117940.31;;;-139.74;52.17
76496;BME280;65329;52.544;4.662;2024-02-15T09:10:11;117940.31;;;-139.74;52.36
76496;BME280;65329;52.544;4.662;2024-02-15T09:12:42;117940.31;;;-139.74;52.84
76496;BME280;65329;52.544;4.662;2024-02-15T09:15:09;117940.31;;;-139.74;53.19
76496;BME280;65329;52.544;4.662;2024-02-15T09:17:39;117940.31;;;-139.74;52.98
76496;BME280;65329;52.544;4.662;2024-02-15T09:20:11;117940.31;;;-139.74;53.31
76496;BME280;65329;52.544;4.662;2024-02-15T09:22:49;117940.31;;;-139.74;53.25
76496;BME280;65329;52.544;4.662;2024-02-15T09:25:17;117940.31;;;-139.74;53.44
76496;BME280;65329;52.544;4.662;2024-02-15T09:27:44;117940.31;;;-139.74;53.35
76496;BME280;65329;52.544;4.662;2024-02-15T09:30:13;117940.31;;;-139.74;53.30
76496;BME280;65329;52.544;4.662;2024-02-15T09:32:40;117940.31;;;-139.74;53.55
76496;BME280;65329;52.544;4.662;2024-02-15T09:35:09;117940.31;;;-139.74;53.42
76496;BME280;65329;52.544;4.662;2024-02-15T09:37:38;117940.31;;;-139.74;53.38
76496;BME280;65329;52.544;4.662;2024-02-15T09:40:12;117940.31;;;-139.74;53.28
76496;BME280;65329;52.544;4.662;2024-02-15T09:42:39;117940.31;;;-139.74;52.99
76496;BME280;65329;52.544;4.662;2024-02-15T09:45:08;117940.31;;;-139.74;53.01
76496;BME280;65329;52.544;4.662;2024-02-15T09:47:40;117940.31;;;-139.74;52.96
76496;BME280;65329;52.544;4.662;2024-02-15T09:50:09;117940.31;;;-139.74;53.27
76496;BME280;65329;52.544;4.662;2024-02-15T09:52:50;117940.31;;;-139.74;53.34
76496;BME280;65329;52.544;4.662;2024-02-15T09:55:18;117940.31;;;-139.74;53.13
76496;BME280;65329;52.544;4.662;2024-02-15T09:57:47;117940.31;;;-139.74;53.09
76496;BME280;65329;52.544;4.662;2024-02-15T10:00:14;117940.31;;;-139.74;53.35
76496;BME280;65329;52.544;4.662;2024-02-15T10:02:49;117940.31;;;-139.74;53.89
76496;BME280;65329;52.544;4.662;2024-02-15T10:05:17;117940.31;;;-139.74;54.06
76496;BME280;65329;52.544;4.662;2024-02-15T10:07:45;117940.31;;;-139.74;53.18
76496;BME280;65329;52.544;4.662;2024-02-15T10:12:53;117940.31;;;-139.74;53.67
76496;BME280;65329;52.544;4.662;2024-02-15T10:18:04;117940.31;;;-139.74;53.66
76496;BME280;65329;52.544;4.662;2024-02-15T10:20:32;117940.31;;;-139.74;53.35
76496;BME280;65329;52.544;4.662;2024-02-15T10:25:30;117940.31;;;-139.74;53.30
76496;BME280;65329;52.544;4.662;2024-02-15T10:28:08;117940.31;;;-139.74;53.24
76496;BME280;65329;52.544;4.662;2024-02-15T10:30:40;117940.31;;;-139.74;53.53
76496;BME280;65329;52.544;4.662;2024-02-15T10:33:19;117940.31;;;-139.74;53.62
76496;BME280;65329;52.544;4.662;2024-02-15T10:36:10;117940.31;;;-139.74;52.47
76496;BME280;65329;52.544;4.662;2024-02-15T10:38:40;117940.31;;;-139.74;52.96
76496;BME280;65329;52.544;4.662;2024-02-15T10:41:08;117940.31;;;-139.74;52.90
76496;BME280;65329;52.544;4.662;2024-02-15T10:43:36;117940.31;;;-139.74;52.45
76496;BME280;65329;52.544;4.662;2024-02-15T10:46:07;117940.31;;;-139.74;52.14
76496;BME280;65329;52.544;4.662;2024-02-15T10:48:37;117940.31;;;-139.74;52.05
76496;BME280;65329;52.544;4.662;2024-02-15T10:51:09;117940.31;;;-139.74;52.94
76496;BME280;65329;52.544;4.662;2024-02-15T10:53:39;117940.31;;;-139.74;52.84
76496;BME280;65329;52.544;4.662;2024-02-15T10:56:18;117940.31;;;-139.74;52.91
76496;BME280;65329;52.544;4.662;2024-02-15T10:58:50;117940.31;;;-139.74;52.60
76496;BME280;65329;52.544;4.662;2024-02-15T11:01:22;117940.31;;;-139.74;52.68
76496;BME280;65329;52.544;4.662;2024-02-15T11:04:00;117940.31;;;-139.74;52.72
76496;BME280;65329;52.544;4.662;2024-02-15T11:06:33;117940.31;;;-139.74;52.91
76496;BME280;65329;52.544;4.662;2024-02-15T11:09:02;117940.31;;;-139.74;52.66
76496;BME280;65329;52.544;4.662;2024-02-15T11:11:29;117940.31;;;-139.74;52.41
76496;BME280;65329;52.544;4.662;2024-02-15T11:14:24;117940.31;;;-139.74;52.31
76496;BME280;65329;52.544;4.662;2024-02-15T11:16:51;117940.31;;;-139.74;52.44
76496;BME280;65329;52.544;4.662;2024-02-15T11:22:14;117940.31;;;-139.74;51.16
76496;BME280;65329;52.544;4.662;2024-02-15T11:24:49;117940.31;;;-139.74;50.95
76496;BME280;65329;52.544;4.662;2024-02-15T11:27:29;117940.31;;;-139.74;50.12
76496;BME280;65329;52.544;4.662;2024-02-15T11:30:00;117940.31;;;-139.74;50.34
76496;BME280;65329;52.544;4.662;2024-02-15T11:32:48;117940.31;;;-139.74;45.39
76496;BME280;65329;52.544;4.662;2024-02-15T11:35:18;117940.31;;;-139.74;47.84
76496;BME280;65329;52.544;4.662;2024-02-15T11:42:41;117940.31;;;-139.74;47.30
76496;BME280;65329;52.544;4.662;2024-02-15T11:45:08;117940.31;;;-139.74;46.57
76496;BME280;65329;52.544;4.662;2024-02-15T11:47:40;117940.31;;;-139.74;46.34
76496;BME280;65329;52.544;4.662;2024-02-15T11:50:10;117940.31;;;-139.74;45.93
76496;BME280;65329;52.544;4.662;2024-02-15T11:52:41;117940.31;;;-139.74;44.37
76496;BME280;65329;52.544;4.662;2024-02-15T11:55:12;117940.31;;;-139.74;44.29
76496;BME280;65329;52.544;4.662;2024-02-15T11:57:42;117940.31;;;-139.74;42.98
76496;BME280;65329;52.544;4.662;2024-02-15T12:00:21;117940.31;;;-139.74;39.98
76496;BME280;65329;52.544;4.662;2024-02-15T12:03:09;117940.31;;;-139.74;38.18
76496;BME280;65329;52.544;4.662;2024-02-15T12:05:55;117940.31;;;-139.74;37.29
76496;BME280;65329;52.544;4.662;2024-02-15T12:08:45;117940.31;;;-139.74;35.44
76496;BME280;65329;52.544;4.662;2024-02-15T12:11:31;117940.31;;;-139.74;31.59
76496;BME280;65329;52.544;4.662;2024-02-15T12:14:18;117940.31;;;-139.74;32.61
76496;BME280;65329;52.544;4.662;2024-02-15T12:19:51;117940.31;;;-139.74;35.23
76496;BME280;65329;52.544;4.662;2024-02-15T12:22:30;117940.31;;;-139.74;31.53
76496;BME280;65329;52.544;4.662;2024-02-15T12:25:00;117940.31;;;-139.74;32.34
76496;BME280;65329;52.544;4.662;2024-02-15T12:27:27;117940.31;;;-139.74;36.00
76496;BME280;65329;52.544;4.662;2024-02-15T12:29:58;117940.31;;;-139.74;32.32
76496;BME280;65329;52.544;4.662;2024-02-15T12:32:26;117940.31;;;-139.74;31.39
76496;BME280;65329;52.544;4.662;2024-02-15T12:35:10;117940.31;;;-139.74;26.95
76496;BME280;65329;52.544;4.662;2024-02-15T12:37:43;117940.31;;;-139.74;24.27
76496;BME280;65329;52.544;4.662;2024-02-15T12:40:15;117940.31;;;-139.74;26.10
76496;BME280;65329;52.544;4.662;2024-02-15T12:42:44;117940.31;;;-139.74;16.97
76496;BME280;65329;52.544;4.662;2024-02-15T12:45:18;117940.31;;;-139.74;3.23
76496;BME280;65329;52.544;4.662;2024-02-15T12:47:52;117940.31;;;-139.74;0.00
76496;BME280;65329;52.544;4.662;2024-02-15T12:50:21;117940.31;;;-139.74;0.00
76496;BME280;65329;52.544;4.662;2024-02-15T12:52:49;117940.31;;;-139.74;0.00
76496;BME280;65329;52.544;4.662;2024-02-15T12:55:20;117940.31;;;-139.74;0.00
76496;BME280;65329;52.544;4.662;2024-02-15T12:57:52;117940.31;;;-139.74;0.00
76496;BME280;65329;52.544;4.662;2024-02-15T13:00:27;117940.31;;;-139.74;0.00
76496;BME280;65329;52.544;4.662;2024-02-15T13:03:01;117940.31;;;-139.74;0.00
76496;BME280;65329;52.544;4.662;2024-02-15T13:05:31;117940.31;;;-139.74;0.00